Time;durP1;ratioP1;P1;durP2;ratioP2;P2;SDS_P1;SDS_P2;PMS_P1;PMS_P2;Temp;Humidity;BMP_temperature;BMP_pressure;BME280_temperature;BME280_humidity;BME280_pressure;Samples;Min_cycle;Max_cycle;Signal;HPM_P1;HPM_P2
2023/12/27 00:01:05;;;;;;;4.23;1.30;;;;;;;8.70;100.00;98683.72;5096611;28;20230;-73
2023/12/27 00:03:31;;;;;;;1.60;0.80;;;;;;;8.72;100.00;98689.66;5096782;28;20220;-73
2023/12/27 00:05:58;;;;;;;3.43;1.00;;;;;;;8.71;100.00;98693.31;5096715;28;20565;-73
2023/12/27 00:08:24;;;;;;;2.77;1.00;;;;;;;8.72;100.00;98698.44;5096913;28;20204;-73
2023/12/27 00:10:50;;;;;;;2.00;0.97;;;;;;;8.72;100.00;98698.44;5096825;28;20220;-73
2023/12/27 00:13:21;;;;;;;2.03;1.00;;;;;;;8.71;100.00;98698.63;5097038;28;20243;-73
2023/12/27 00:15:49;;;;;;;2.43;1.00;;;;;;;8.73;100.00;98709.88;5096913;28;20192;-73
2023/12/27 00:18:17;;;;;;;2.47;1.10;;;;;;;8.71;100.00;98709.22;5096661;28;20265;-73
2023/12/27 00:20:47;;;;;;;1.97;1.00;;;;;;;8.71;100.00;98690.66;5096371;28;20311;-73
2023/12/27 00:23:16;;;;;;;3.33;1.20;;;;;;;8.71;100.00;98688.00;5096460;28;20225;-73
2023/12/27 00:25:44;;;;;;;3.07;1.23;;;;;;;8.71;100.00;98682.72;5096339;28;20207;-73
2023/12/27 00:28:13;;;;;;;2.97;1.43;;;;;;;8.68;100.00;98677.78;5096644;28;20265;-73
2023/12/27 00:30:41;;;;;;;2.40;1.10;;;;;;;8.67;100.00;98676.16;5096627;28;20224;-73
2023/12/27 00:33:08;;;;;;;3.60;1.30;;;;;;;8.62;100.00;98683.88;5095888;28;20303;-73
2023/12/27 00:35:35;;;;;;;2.90;1.23;;;;;;;8.64;100.00;98697.75;5096519;28;20208;-73
2023/12/27 00:38:01;;;;;;;5.40;1.30;;;;;;;8.68;100.00;98697.16;5096478;28;20294;-73
2023/12/27 00:40:27;;;;;;;4.33;1.30;;;;;;;8.72;100.00;98694.94;5096068;28;20227;-73
2023/12/27 00:42:54;;;;;;;2.43;1.17;;;;;;;8.65;100.00;98694.09;5096190;28;20208;-73
2023/12/27 00:45:20;;;;;;;2.87;0.90;;;;;;;8.66;100.00;98687.78;5096126;28;20674;-73
2023/12/27 00:47:48;;;;;;;3.63;1.30;;;;;;;8.69;100.00;98677.59;5095978;28;20254;-73
2023/12/27 00:50:14;;;;;;;2.20;1.00;;;;;;;8.66;100.00;98675.34;5096274;28;20293;-73
2023/12/27 00:52:41;;;;;;;1.47;0.93;;;;;;;8.69;100.00;98668.84;5095970;28;20204;-73
2023/12/27 00:55:08;;;;;;;2.07;1.20;;;;;;;8.70;100.00;98673.13;5095833;28;20207;-73
2023/12/27 00:57:34;;;;;;;4.50;1.30;;;;;;;8.73;100.00;98683.38;5096188;28;20207;-73
2023/12/27 01:00:01;;;;;;;2.13;1.37;;;;;;;8.81;100.00;98686.69;5095982;28;20236;-73
2023/12/27 01:02:27;;;;;;;2.23;1.13;;;;;;;8.87;100.00;98680.59;5095751;28;20204;-73
2023/12/27 01:04:54;;;;;;;3.13;1.20;;;;;;;8.87;100.00;98683.25;5095961;28;20204;-73
2023/12/27 01:07:21;;;;;;;2.93;1.07;;;;;;;8.91;100.00;98683.69;5095566;28;20303;-73
2023/12/27 01:09:48;;;;;;;1.63;1.00;;;;;;;8.93;100.00;98684.31;5095725;28;20228;-73
2023/12/27 01:12:14;;;;;;;4.43;1.30;;;;;;;9.02;100.00;98677.84;5095781;28;20204;-73
2023/12/27 01:14:41;;;;;;;1.60;1.30;;;;;;;8.83;100.00;98675.88;5095387;28;20210;-73
2023/12/27 01:17:09;;;;;;;2.03;1.37;;;;;;;8.68;100.00;98689.22;5095739;28;20245;-73
2023/12/27 01:19:35;;;;;;;1.80;1.23;;;;;;;8.73;100.00;98680.72;5095510;28;20252;-73
2023/12/27 01:22:02;;;;;;;2.30;1.60;;;;;;;8.60;100.00;98684.03;5095304;28;20735;-73
2023/12/27 01:24:28;;;;;;;4.10;1.50;;;;;;;8.58;100.00;98690.56;5095174;28;20215;-73
2023/12/27 01:26:55;;;;;;;1.60;1.30;;;;;;;8.58;100.00;98679.94;5095446;28;20227;-73
2023/12/27 01:29:21;;;;;;;2.07;1.57;;;;;;;8.54;100.00;98679.53;5095360;28;20228;-73
2023/12/27 01:31:47;;;;;;;3.17;1.30;;;;;;;8.49;100.00;98683.75;5095395;28;20200;-73
2023/12/27 01:34:14;;;;;;;2.87;1.40;;;;;;;8.51;100.00;98687.03;5095341;28;20203;-73
2023/12/27 01:36:40;;;;;;;2.83;1.60;;;;;;;8.46;100.00;98681.50;5095321;28;20295;-73
2023/12/27 01:39:07;;;;;;;3.80;1.70;;;;;;;8.41;100.00;98687.34;5095204;28;20220;-73
2023/12/27 01:41:34;;;;;;;2.83;1.33;;;;;;;8.35;100.00;98674.03;5094818;28;20228;-73
2023/12/27 01:44:00;;;;;;;2.60;1.80;;;;;;;8.34;100.00;98677.72;5095119;28;20307;-73
2023/12/27 01:46:30;;;;;;;3.20;1.60;;;;;;;8.32;100.00;98679.75;5095074;28;20211;-73
2023/12/27 01:48:59;;;;;;;1.73;1.47;;;;;;;8.31;100.00;98686.84;5094686;28;20207;-73
2023/12/27 01:51:28;;;;;;;2.70;1.40;;;;;;;8.31;100.00;98688.66;5094718;28;20200;-73
2023/12/27 01:53:58;;;;;;;5.10;1.63;;;;;;;8.30;100.00;98676.44;5094699;28;20683;-73
2023/12/27 01:56:26;;;;;;;3.23;1.63;;;;;;;8.30;100.00;98679.09;5095095;28;20612;-73
2023/12/27 01:58:53;;;;;;;2.87;1.57;;;;;;;8.31;100.00;98670.97;5094403;28;20208;-73
2023/12/27 02:01:20;;;;;;;2.40;1.37;;;;;;;8.27;100.00;98672.34;5094365;28;20229;-73
2023/12/27 02:03:47;;;;;;;2.27;1.20;;;;;;;8.23;100.00;98670.28;5094437;28;20206;-73
2023/12/27 02:06:14;;;;;;;2.03;1.40;;;;;;;8.21;100.00;98677.56;5094454;28;20211;-73
2023/12/27 02:08:41;;;;;;;2.43;1.30;;;;;;;8.13;100.00;98681.13;5094466;28;20663;-73
2023/12/27 02:11:08;;;;;;;3.40;1.47;;;;;;;8.08;100.00;98686.19;5094791;28;20226;-73
2023/12/27 02:13:34;;;;;;;3.73;1.40;;;;;;;8.00;100.00;98678.34;5094365;28;20204;-73
2023/12/27 02:16:01;;;;;;;2.00;1.40;;;;;;;7.98;100.00;98677.72;5094252;28;20207;-73
2023/12/27 02:18:29;;;;;;;2.90;1.20;;;;;;;7.97;100.00;98670.75;5094597;28;20211;-73
2023/12/27 02:20:56;;;;;;;2.70;1.57;;;;;;;7.96;100.00;98673.63;5094370;28;20230;-73
2023/12/27 02:23:26;;;;;;;2.10;1.50;;;;;;;7.89;100.00;98668.25;5094526;28;20204;-73
2023/12/27 02:25:53;;;;;;;3.70;1.50;;;;;;;7.83;100.00;98666.34;5094420;28;20215;-73
2023/12/27 02:28:19;;;;;;;3.50;1.53;;;;;;;7.84;100.00;98669.81;5094382;28;20208;-73
2023/12/27 02:30:47;;;;;;;3.53;2.10;;;;;;;7.83;100.00;98673.47;5094303;28;20220;-73
2023/12/27 02:33:19;;;;;;;2.90;1.87;;;;;;;7.83;100.00;98668.19;5094054;28;20203;-73
2023/12/27 02:35:46;;;;;;;3.97;1.93;;;;;;;7.74;100.00;98666.66;5093822;28;20227;-73
2023/12/27 02:38:12;;;;;;;2.47;1.83;;;;;;;7.70;100.00;98660.88;5093984;28;20208;-73
2023/12/27 02:40:38;;;;;;;3.00;2.20;;;;;;;7.74;100.00;98667.44;5094104;28;20224;-73
2023/12/27 02:43:05;;;;;;;3.20;2.37;;;;;;;7.75;100.00;98666.47;5093850;28;20208;-73
2023/12/27 02:45:31;;;;;;;3.70;2.60;;;;;;;7.72;100.00;98669.47;5094222;28;20218;-73
2023/12/27 02:47:57;;;;;;;3.33;2.00;;;;;;;7.77;100.00;98660.97;5093840;28;20220;-73
2023/12/27 02:50:25;;;;;;;3.47;2.43;;;;;;;7.79;100.00;98662.41;5094062;28;20226;-73
2023/12/27 02:52:53;;;;;;;4.93;2.43;;;;;;;7.83;100.00;98665.53;5093671;28;20214;-73
2023/12/27 02:55:20;;;;;;;3.73;2.27;;;;;;;7.83;100.00;98653.09;5093967;28;20554;-73
2023/12/27 02:57:46;;;;;;;4.07;2.50;;;;;;;7.87;100.00;98654.38;5093946;28;20226;-73
2023/12/27 03:00:13;;;;;;;5.10;2.67;;;;;;;7.90;100.00;98645.22;5093754;28;20228;-73
2023/12/27 03:02:39;;;;;;;3.97;2.80;;;;;;;7.80;100.00;98642.91;5093781;28;20204;-73
2023/12/27 03:05:06;;;;;;;3.87;2.40;;;;;;;7.79;100.00;98643.09;5093778;28;20207;-73
2023/12/27 03:07:32;;;;;;;4.57;2.47;;;;;;;7.79;100.00;98641.25;5093856;28;20208;-73
2023/12/27 03:09:59;;;;;;;3.87;2.50;;;;;;;7.80;100.00;98642.91;5093766;28;20245;-73
2023/12/27 03:12:25;;;;;;;5.97;2.87;;;;;;;7.78;100.00;98625.56;5093761;28;20202;-73
2023/12/27 03:14:51;;;;;;;3.80;2.33;;;;;;;7.79;100.00;98629.84;5093763;28;20207;-73
2023/12/27 03:17:18;;;;;;;3.07;2.03;;;;;;;7.75;100.00;98625.94;5093786;28;20204;-73
2023/12/27 03:19:44;;;;;;;2.80;2.20;;;;;;;7.74;100.00;98625.09;5093320;28;20562;-73
2023/12/27 03:22:10;;;;;;;3.60;2.00;;;;;;;7.71;100.00;98627.31;5093603;28;20602;-73
2023/12/27 03:24:37;;;;;;;3.17;2.30;;;;;;;7.70;100.00;98623.03;5093581;28;20218;-73
2023/12/27 03:27:03;;;;;;;3.63;2.30;;;;;;;7.69;100.00;98624.84;5097211;28;20230;-73
2023/12/27 03:29:29;;;;;;;2.87;2.30;;;;;;;7.65;100.00;98628.88;5097444;28;20597;-73
2023/12/27 03:31:56;;;;;;;4.57;2.20;;;;;;;7.66;100.00;98624.41;5097422;28;20666;-73
2023/12/27 03:34:22;;;;;;;4.03;2.17;;;;;;;7.65;100.00;98617.50;5097415;28;20204;-73
2023/12/27 03:36:48;;;;;;;5.23;2.37;;;;;;;7.69;100.00;98618.75;5097697;28;20208;-73
2023/12/27 03:39:15;;;;;;;5.70;2.20;;;;;;;7.74;100.00;98626.94;5097592;28;20230;-73
2023/12/27 03:41:41;;;;;;;3.97;2.33;;;;;;;7.75;100.00;98624.13;5097517;28;20227;-73
2023/12/27 03:44:07;;;;;;;4.03;2.20;;;;;;;7.79;100.00;98625.38;5097261;28;20215;-73
2023/12/27 03:46:34;;;;;;;2.73;2.00;;;;;;;7.73;100.00;98620.81;5097601;28;20216;-73
2023/12/27 03:49:01;;;;;;;3.50;2.30;;;;;;;7.73;100.00;98614.72;5097008;28;20748;-73
2023/12/27 03:51:27;;;;;;;3.43;2.30;;;;;;;7.69;100.00;98618.75;5097413;28;20207;-73
2023/12/27 03:53:53;;;;;;;3.70;2.20;;;;;;;7.72;100.00;98618.38;5097033;28;20203;-73
2023/12/27 03:56:20;;;;;;;5.10;2.30;;;;;;;7.74;100.00;98622.47;5097321;28;20208;-73
2023/12/27 03:58:46;;;;;;;4.97;2.27;;;;;;;7.75;100.00;98628.59;5097132;28;20200;-73
2023/12/27 04:01:12;;;;;;;3.13;1.87;;;;;;;7.76;100.00;98619.63;5097185;28;20233;-73
2023/12/27 04:03:41;;;;;;;5.33;2.30;;;;;;;7.73;100.00;98620.00;5096893;28;20674;-73
2023/12/27 04:06:07;;;;;;;5.50;2.47;;;;;;;7.78;100.00;98617.63;5097129;28;20286;-73
2023/12/27 04:08:34;;;;;;;4.30;2.13;;;;;;;7.81;100.00;98617.25;5096681;28;20204;-73
2023/12/27 04:11:00;;;;;;;3.13;1.90;;;;;;;7.83;100.00;98620.53;5096997;28;20216;-73
2023/12/27 04:13:27;;;;;;;6.40;2.60;;;;;;;7.81;100.00;98619.88;5096627;28;20208;-73
2023/12/27 04:15:53;;;;;;;5.23;2.27;;;;;;;7.83;100.00;98621.34;5096846;28;20205;-73
2023/12/27 04:18:19;;;;;;;3.30;2.00;;;;;;;7.83;100.00;98605.47;5096770;28;20207;-73
2023/12/27 04:20:46;;;;;;;5.03;2.10;;;;;;;7.85;100.00;98607.91;5096592;28;20228;-73
2023/12/27 04:23:12;;;;;;;4.83;2.20;;;;;;;7.84;100.00;98606.28;5096472;28;20669;-73
2023/12/27 04:25:39;;;;;;;3.53;2.20;;;;;;;7.82;100.00;98605.63;5096775;28;20255;-73
2023/12/27 04:28:05;;;;;;;4.67;2.10;;;;;;;7.83;100.00;98594.06;5096639;28;20204;-73
2023/12/27 04:30:31;;;;;;;7.23;2.50;;;;;;;7.84;100.00;98596.53;5096400;28;20224;-73
2023/12/27 04:32:58;;;;;;;4.07;1.97;;;;;;;7.83;100.00;98591.41;5096431;28;20207;-73
2023/12/27 04:35:24;;;;;;;4.73;2.40;;;;;;;7.85;100.00;98584.09;5096573;28;20243;-73
2023/12/27 04:37:50;;;;;;;6.13;2.50;;;;;;;7.85;100.00;98581.44;5095693;28;20200;-73
2023/12/27 04:40:17;;;;;;;4.17;1.90;;;;;;;7.94;100.00;98577.66;5096336;28;20219;-73
2023/12/27 04:42:43;;;;;;;3.03;2.00;;;;;;;7.87;100.00;98576.81;5096187;28;20223;-73
2023/12/27 04:45:10;;;;;;;3.07;2.17;;;;;;;7.86;100.00;98581.28;5096297;28;20204;-72
2023/12/27 04:47:36;;;;;;;3.43;2.07;;;;;;;7.90;100.00;98589.63;5096113;28;20263;-72
2023/12/27 04:50:02;;;;;;;2.83;2.03;;;;;;;7.80;100.00;98581.19;5096194;28;20227;-72
2023/12/27 04:52:29;;;;;;;4.23;2.50;;;;;;;7.88;100.00;98575.78;5095709;28;20211;-72
2023/12/27 04:54:55;;;;;;;3.80;2.10;;;;;;;7.91;100.00;98584.16;5096048;28;20208;-72
2023/12/27 04:57:21;;;;;;;3.37;2.20;;;;;;;7.96;100.00;98578.31;5096004;28;20215;-72
2023/12/27 04:59:48;;;;;;;3.70;2.23;;;;;;;7.89;100.00;98590.66;5095977;28;20224;-72
2023/12/27 05:02:14;;;;;;;4.73;2.53;;;;;;;7.87;100.00;98595.34;5095653;28;20231;-72
2023/12/27 05:04:40;;;;;;;3.27;2.53;;;;;;;7.88;100.00;98591.66;5095644;28;20204;-72
2023/12/27 05:07:07;;;;;;;4.20;2.43;;;;;;;7.89;100.00;98588.00;5095520;28;20215;-72
2023/12/27 05:09:33;;;;;;;3.60;2.50;;;;;;;7.86;100.00;98586.56;5095543;28;20228;-72
2023/12/27 05:12:00;;;;;;;6.37;2.60;;;;;;;7.79;100.00;98585.66;5095486;28;20202;-72
2023/12/27 05:14:26;;;;;;;6.73;2.60;;;;;;;7.75;100.00;98589.72;5095563;28;20204;-72
2023/12/27 05:16:55;;;;;;;4.07;2.77;;;;;;;7.62;100.00;98586.94;5095556;28;20208;-72
2023/12/27 05:19:21;;;;;;;7.17;3.00;;;;;;;7.50;100.00;98591.06;5095318;28;20231;-72
2023/12/27 05:21:47;;;;;;;4.40;2.60;;;;;;;7.42;100.00;98577.94;5095636;28;20223;-72
2023/12/27 05:24:14;;;;;;;2.60;2.40;;;;;;;7.32;100.00;98582.72;5095439;28;20208;-73
2023/12/27 05:26:40;;;;;;;3.50;2.47;;;;;;;7.25;100.00;98583.63;5095332;28;20204;-72
2023/12/27 05:29:07;;;;;;;4.30;2.40;;;;;;;7.20;100.00;98584.19;5094949;28;20224;-72
2023/12/27 05:31:33;;;;;;;4.83;2.70;;;;;;;7.02;100.00;98582.94;5095234;28;20204;-72
2023/12/27 05:33:59;;;;;;;4.77;2.30;;;;;;;7.07;100.00;98583.22;5095120;28;20208;-72
2023/12/27 05:36:26;;;;;;;4.07;2.33;;;;;;;7.00;100.00;98583.13;5095004;28;20204;-72
2023/12/27 05:38:52;;;;;;;4.70;2.40;;;;;;;6.99;100.00;98588.59;5095049;28;20261;-73
2023/12/27 05:41:24;;;;;;;3.93;2.30;;;;;;;6.95;100.00;98589.94;5095242;28;20583;-73
2023/12/27 05:43:50;;;;;;;4.27;2.57;;;;;;;6.97;100.00;98591.41;5094890;28;20188;-73
2023/12/27 05:46:17;;;;;;;2.60;2.20;;;;;;;7.00;100.00;98593.69;5094971;28;20206;-72
2023/12/27 05:48:43;;;;;;;4.47;2.80;;;;;;;7.00;100.00;98588.41;5093243;28;20216;-72
2023/12/27 05:51:09;;;;;;;5.30;2.40;;;;;;;6.98;100.00;98589.59;5094689;28;20203;-73
2023/12/27 05:53:36;;;;;;;3.97;2.70;;;;;;;6.95;100.00;98582.03;5094736;28;20208;-73
2023/12/27 05:56:02;;;;;;;5.27;3.13;;;;;;;6.93;100.00;98578.75;5095396;28;20212;-73
2023/12/27 05:58:29;;;;;;;4.87;2.60;;;;;;;6.88;100.00;98571.34;5095683;28;20207;-73
2023/12/27 06:00:56;;;;;;;2.93;2.63;;;;;;;6.81;100.00;98559.06;5094579;28;20223;-73
2023/12/27 06:03:23;;;;;;;5.47;2.80;;;;;;;6.83;100.00;98557.88;5094260;28;20258;-73
2023/12/27 06:05:49;;;;;;;4.83;2.63;;;;;;;6.87;100.00;98561.00;5094363;28;20216;-73
2023/12/27 06:08:20;;;;;;;5.47;2.77;;;;;;;6.87;100.00;98559.16;5094495;28;20220;-73
2023/12/27 06:10:47;;;;;;;5.43;2.90;;;;;;;6.87;100.00;98563.63;5094652;28;20304;-73
2023/12/27 06:13:14;;;;;;;5.50;2.73;;;;;;;6.76;100.00;98562.28;5094473;28;20200;-73
2023/12/27 06:15:40;;;;;;;5.57;2.77;;;;;;;6.75;100.00;98565.09;5094539;28;20204;-73
2023/12/27 06:18:07;;;;;;;6.77;3.27;;;;;;;6.67;100.00;98567.81;5094305;28;20204;-73
2023/12/27 06:20:33;;;;;;;5.40;2.67;;;;;;;6.61;100.00;98563.25;5094489;28;20226;-73
2023/12/27 06:22:59;;;;;;;4.37;2.70;;;;;;;6.56;100.00;98555.06;5094284;28;20246;-73
2023/12/27 06:25:26;;;;;;;6.90;2.97;;;;;;;6.58;100.00;98545.13;5094159;28;20228;-71
2023/12/27 06:27:52;;;;;;;5.00;2.77;;;;;;;6.63;100.00;98534.84;5093989;28;20213;-71
2023/12/27 06:30:18;;;;;;;4.70;2.60;;;;;;;6.50;100.00;98535.47;5094085;28;20220;-71
2023/12/27 06:32:45;;;;;;;4.50;2.83;;;;;;;6.51;100.00;98531.03;5093981;28;20206;-71
2023/12/27 06:35:11;;;;;;;5.73;2.83;;;;;;;6.50;100.00;98519.63;5093901;28;20212;-71
2023/12/27 06:37:37;;;;;;;4.00;2.63;;;;;;;6.49;100.00;98518.00;5093654;28;20210;-71
2023/12/27 06:40:04;;;;;;;4.03;2.20;;;;;;;6.48;100.00;98531.38;5093190;28;20228;-71
2023/12/27 06:42:30;;;;;;;3.50;2.70;;;;;;;6.48;100.00;98534.03;5093876;28;20225;-73
2023/12/27 06:44:57;;;;;;;6.10;2.73;;;;;;;6.50;100.00;98534.66;5093389;28;20210;-71
2023/12/27 06:47:23;;;;;;;7.97;2.80;;;;;;;6.40;100.00;98540.22;5092934;28;20226;-73
2023/12/27 06:49:51;;;;;;;7.33;2.80;;;;;;;6.37;100.00;98545.84;5093377;28;20255;-72
2023/12/27 06:52:17;;;;;;;4.80;2.70;;;;;;;6.31;100.00;98546.56;5093396;28;20200;-72
2023/12/27 06:54:44;;;;;;;4.63;2.53;;;;;;;6.33;100.00;98534.00;5093522;28;20280;-72
2023/12/27 06:57:10;;;;;;;3.93;2.53;;;;;;;6.44;100.00;98535.38;5093067;28;20672;-72
2023/12/27 06:59:37;;;;;;;5.87;2.50;;;;;;;6.45;100.00;98532.56;5093019;28;20228;-72
2023/12/27 07:02:04;;;;;;;5.87;2.80;;;;;;;6.45;100.00;98529.09;5093653;28;20247;-72
2023/12/27 07:04:31;;;;;;;7.67;3.10;;;;;;;6.46;100.00;98538.66;5093473;28;20203;-72
2023/12/27 07:06:57;;;;;;;6.93;3.20;;;;;;;6.46;100.00;98534.19;5093370;28;20204;-72
2023/12/27 07:09:23;;;;;;;6.23;3.00;;;;;;;6.50;100.00;98543.41;5093484;28;20224;-73
2023/12/27 07:11:50;;;;;;;4.17;2.67;;;;;;;6.55;100.00;98548.13;5093613;28;20202;-76
2023/12/27 07:14:16;;;;;;;4.57;2.97;;;;;;;6.56;100.00;98544.50;5094027;28;20230;-76
2023/12/27 07:16:44;;;;;;;3.90;2.73;;;;;;;6.55;100.00;98538.38;5094107;28;20207;-76
2023/12/27 07:19:10;;;;;;;6.33;3.07;;;;;;;6.55;100.00;98543.66;5093651;28;20224;-75
2023/12/27 07:21:36;;;;;;;4.30;2.93;;;;;;;6.47;100.00;98542.94;5093549;28;20230;-75
2023/12/27 07:24:03;;;;;;;4.40;2.67;;;;;;;6.45;100.00;98542.28;5093173;28;20208;-76
2023/12/27 07:26:29;;;;;;;5.90;3.07;;;;;;;6.46;100.00;98543.94;5093099;28;20667;-72
2023/12/27 07:28:56;;;;;;;4.23;2.90;;;;;;;6.48;100.00;98537.50;5093240;28;20563;-71
2023/12/27 07:31:22;;;;;;;5.07;2.73;;;;;;;6.47;100.00;98542.94;5093061;28;20248;-72
2023/12/27 07:33:49;;;;;;;4.60;3.13;;;;;;;6.47;100.00;98542.94;5092826;28;20695;-72
2023/12/27 07:36:16;;;;;;;6.00;3.10;;;;;;;6.52;100.00;98548.50;5093070;28;20204;-72
2023/12/27 07:38:43;;;;;;;4.93;3.07;;;;;;;6.57;100.00;98540.84;5093155;28;20231;-72
2023/12/27 07:41:09;;;;;;;5.30;3.20;;;;;;;6.62;100.00;98546.41;5093351;28;20214;-72
2023/12/27 07:43:36;;;;;;;9.00;4.90;;;;;;;6.61;100.00;98544.78;5093184;28;20225;-73
2023/12/27 07:46:03;;;;;;;5.63;3.63;;;;;;;6.67;100.00;98551.97;5094490;28;20205;-73
2023/12/27 07:48:29;;;;;;;8.33;4.13;;;;;;;6.71;100.00;98537.38;5092831;28;20211;-73
2023/12/27 07:50:56;;;;;;;7.87;3.47;;;;;;;6.74;100.00;98550.25;5093094;28;20259;-73
2023/12/27 07:53:22;;;;;;;6.33;3.67;;;;;;;6.74;100.00;98550.25;5092927;28;20204;-73
2023/12/27 07:55:49;;;;;;;4.47;3.27;;;;;;;6.69;100.00;98556.06;5093214;28;20210;-73
2023/12/27 07:58:15;;;;;;;8.20;3.50;;;;;;;6.68;100.00;98567.63;5092781;28;20204;-73
2023/12/27 08:00:41;;;;;;;7.83;4.10;;;;;;;6.69;100.00;98571.13;5093130;28;20225;-73
2023/12/27 08:03:08;;;;;;;6.90;3.53;;;;;;;6.65;100.00;98564.56;5092976;28;20226;-73
2023/12/27 08:05:36;;;;;;;6.93;3.63;;;;;;;6.66;100.00;98572.25;5093360;28;20208;-73
2023/12/27 08:08:06;;;;;;;5.00;3.23;;;;;;;6.64;100.00;98563.72;5092859;28;20208;-73
2023/12/27 08:10:32;;;;;;;5.80;3.30;;;;;;;6.65;100.00;98559.25;5093175;28;20339;-73
2023/12/27 08:13:00;;;;;;;6.10;3.57;;;;;;;6.69;100.00;98556.06;5094636;28;20216;-73
2023/12/27 08:15:26;;;;;;;7.00;3.70;;;;;;;6.72;100.00;98554.88;5098039;28;20208;-72
2023/12/27 08:17:53;;;;;;;9.20;4.50;;;;;;;6.73;100.00;98556.50;5096749;28;20208;-72
2023/12/27 08:20:19;;;;;;;6.17;4.00;;;;;;;6.74;100.00;98558.97;5096204;28;20706;-72
2023/12/27 08:22:45;;;;;;;5.30;3.90;;;;;;;6.80;100.00;98570.66;5096787;28;20223;-72
2023/12/27 08:25:15;;;;;;;5.90;4.03;;;;;;;6.80;100.00;98565.34;5096617;28;20203;-73
2023/12/27 08:27:41;;;;;;;5.23;3.77;;;;;;;6.84;100.00;98564.00;5096467;28;20201;-73
2023/12/27 08:30:08;;;;;;;8.23;3.87;;;;;;;6.92;100.00;98566.56;5096186;28;20315;-73
2023/12/27 08:32:34;;;;;;;5.93;3.80;;;;;;;6.97;100.00;98572.09;5096417;28;20203;-72
2023/12/27 08:35:01;;;;;;;8.07;3.93;;;;;;;7.02;100.00;98567.88;5096079;28;20200;-72
2023/12/27 08:37:27;;;;;;;6.43;3.83;;;;;;;7.08;100.00;98572.44;5096152;28;20209;-72
2023/12/27 08:39:54;;;;;;;8.30;4.07;;;;;;;7.14;100.00;98570.88;5095789;28;20728;-72
2023/12/27 08:42:20;;;;;;;7.93;4.13;;;;;;;7.14;100.00;98555.84;5096135;28;20224;-72
2023/12/27 08:44:47;;;;;;;6.40;4.03;;;;;;;7.22;100.00;98555.75;5096155;28;20253;-72
2023/12/27 08:47:14;;;;;;;6.07;3.93;;;;;;;7.29;100.00;98548.69;5095542;28;20214;-72
2023/12/27 08:49:40;;;;;;;9.37;3.87;;;;;;;7.23;100.00;98543.31;5096087;28;20232;-72
2023/12/27 08:52:07;;;;;;;6.00;3.77;;;;;;;7.16;100.00;98537.97;5095757;28;20288;-72
2023/12/27 08:54:34;;;;;;;6.27;3.93;;;;;;;7.19;100.00;98542.09;5095849;28;20214;-72
2023/12/27 08:57:00;;;;;;;4.30;3.80;;;;;;;7.17;100.00;98538.78;5097550;28;20293;-73
2023/12/27 08:59:26;;;;;;;5.67;3.47;;;;;;;7.15;100.00;98535.53;5095542;28;20223;-73
2023/12/27 09:01:53;;;;;;;4.47;4.00;;;;;;;7.18;100.00;98524.56;5095902;28;20301;-73
2023/12/27 09:04:20;;;;;;;7.07;3.90;;;;;;;7.26;100.00;98521.81;5095487;28;20204;-73
2023/12/27 09:06:46;;;;;;;8.73;4.03;;;;;;;7.38;100.00;98509.75;5095893;28;20294;-72
2023/12/27 09:09:13;;;;;;;9.10;3.93;;;;;;;7.47;100.00;98511.25;5095712;28;20230;-73
2023/12/27 09:11:39;;;;;;;5.00;3.67;;;;;;;7.47;100.00;98500.69;5095825;28;20318;-72
2023/12/27 09:14:06;;;;;;;10.00;3.50;;;;;;;7.47;100.00;98521.84;5095218;28;20206;-72
2023/12/27 09:16:32;;;;;;;6.67;3.33;;;;;;;7.50;100.00;98527.56;5095028;28;20207;-72
2023/12/27 09:18:59;;;;;;;5.70;3.70;;;;;;;7.63;100.00;98533.00;5095174;28;20700;-72
2023/12/27 09:21:26;;;;;;;4.83;3.10;;;;;;;7.73;100.00;98530.84;5095316;28;20679;-72
2023/12/27 09:23:52;;;;;;;4.70;3.43;;;;;;;7.71;100.00;98511.69;5095038;28;20694;-72
2023/12/27 09:26:19;;;;;;;5.00;3.60;;;;;;;7.83;100.00;98512.81;5095376;28;20231;-72
2023/12/27 09:28:45;;;;;;;3.53;3.13;;;;;;;7.86;100.00;98501.03;5095027;28;20207;-72
2023/12/27 09:31:12;;;;;;;9.53;3.63;;;;;;;8.15;100.00;98498.22;5095066;28;20200;-72
2023/12/27 09:33:42;;;;;;;4.10;3.43;;;;;;;8.13;100.00;98506.34;5094795;28;20546;-72
2023/12/27 09:36:09;;;;;;;7.17;3.17;;;;;;;8.35;100.00;98501.84;5095075;28;20204;-72
2023/12/27 09:38:37;;;;;;;8.00;3.10;;;;;;;8.05;100.00;98497.75;5094996;28;20208;-72
2023/12/27 09:41:04;;;;;;;15.13;3.23;;;;;;;7.91;100.00;98506.56;5094619;28;20710;-72
2023/12/27 09:43:33;;;;;;;4.67;3.17;;;;;;;7.78;100.00;98509.13;5094692;28;20220;-72
2023/12/27 09:46:00;;;;;;;4.63;2.90;;;;;;;7.76;100.00;98508.47;5094687;28;20674;-71
2023/12/27 09:48:29;;;;;;;3.87;2.80;;;;;;;8.00;100.00;98500.13;5076510;28;20222;-71
2023/12/27 09:50:58;;;;;;;7.97;3.10;;;;;;;7.82;100.00;98513.00;5095057;28;20298;-72
2023/12/27 09:53:24;;;;;;;7.23;3.17;;;;;;;7.84;100.00;98511.00;5094808;28;20206;-72
2023/12/27 09:55:53;;;;;;;3.83;2.30;;;;;;;8.03;100.00;98512.97;5094896;28;20206;-72
2023/12/27 09:58:20;;;;;;;4.03;2.10;;;;;;;8.08;100.00;98514.06;5094719;28;20208;-72
2023/12/27 10:00:47;;;;;;;4.30;2.13;;;;;;;8.23;100.00;98508.69;5094702;28;20219;-72
2023/12/27 10:03:20;;;;;;;4.23;2.40;;;;;;;8.28;100.00;98503.66;5094744;28;20224;-72
2023/12/27 10:05:58;;;;;;;4.57;2.10;;;;;;;8.21;100.00;98508.06;5094795;28;20192;-72
2023/12/27 10:08:24;;;;;;;7.17;2.50;;;;;;;8.21;100.00;98513.34;5094500;28;20196;-72
2023/12/27 10:10:52;;;;;;;4.77;2.40;;;;;;;8.24;100.00;98492.59;5095099;28;20314;-71
2023/12/27 10:13:20;;;;;;;4.30;2.10;;;;;;;8.39;100.00;98485.38;5094210;28;20561;-72
2023/12/27 10:15:47;;;;;;;4.40;2.50;;;;;;;8.36;100.00;98487.56;5094139;28;20204;-72
2023/12/27 10:18:13;;;;;;;4.17;2.00;;;;;;;8.60;100.00;98484.47;5093922;28;20780;-72
2023/12/27 10:20:43;;;;;;;3.13;2.20;;;;;;;8.67;100.00;98475.53;5093930;28;20732;-72
2023/12/27 10:23:09;;;;;;;5.40;2.30;;;;;;;8.76;100.00;98466.41;5094152;28;20249;-71
2023/12/27 10:25:36;;;;;;;4.30;2.33;;;;;;;8.90;100.00;98464.63;5094100;28;20591;-72
2023/12/27 10:28:02;;;;;;;5.60;2.43;;;;;;;8.80;100.00;98441.16;5093708;28;20235;-72
2023/12/27 10:30:30;;;;;;;5.10;2.60;;;;;;;8.72;100.00;98427.22;5094472;28;20272;-71
2023/12/27 10:33:00;;;;;;;4.93;2.70;;;;;;;8.61;100.00;98428.63;5093812;28;20227;-72
2023/12/27 10:35:28;;;;;;;3.57;2.40;;;;;;;8.56;100.00;98435.53;5092944;28;20678;-72
2023/12/27 10:38:04;;;;;;;4.43;2.50;;;;;;;8.59;100.00;98430.66;5093861;28;20247;-72
2023/12/27 10:40:31;;;;;;;8.40;2.73;;;;;;;8.66;100.00;98439.47;5093607;28;20326;-72
2023/12/27 10:42:58;;;;;;;4.67;2.20;;;;;;;8.67;100.00;98446.38;5093608;28;20223;-72
2023/12/27 10:45:25;;;;;;;4.83;2.73;;;;;;;8.86;100.00;98439.50;5093725;28;20208;-73
2023/12/27 10:48:04;;;;;;;4.80;2.30;;;;;;;8.83;100.00;98431.97;5093387;28;20216;-72
2023/12/27 10:50:32;;;;;;;4.07;2.20;;;;;;;8.88;100.00;98422.38;5092831;28;20251;-71
2023/12/27 10:53:04;;;;;;;4.33;2.50;;;;;;;9.03;100.00;98407.16;5093341;28;20204;-70
2023/12/27 10:55:31;;;;;;;4.53;2.60;;;;;;;9.19;100.00;98409.41;5093162;28;20208;-70
2023/12/27 10:58:00;;;;;;;5.33;2.70;;;;;;;9.14;100.00;98403.09;5092931;28;20204;-70
2023/12/27 11:00:28;;;;;;;3.73;2.73;;;;;;;9.36;100.00;98404.53;5093447;28;20224;-70
2023/12/27 11:02:55;;;;;;;8.40;3.00;;;;;;;9.32;100.00;98408.63;5093526;28;20277;-70
2023/12/27 11:05:23;;;;;;;6.70;3.33;;;;;;;9.35;100.00;98394.94;5094280;28;20560;-70
2023/12/27 11:07:53;;;;;;;5.47;2.70;;;;;;;9.32;100.00;98396.16;5093278;28;20570;-70
2023/12/27 11:10:20;;;;;;;5.37;3.10;;;;;;;9.34;100.00;98391.50;5093624;28;20223;-72
2023/12/27 11:12:50;;;;;;;4.67;2.90;;;;;;;9.44;100.00;98388.44;5093380;28;20261;-72
2023/12/27 11:15:18;;;;;;;5.07;2.80;;;;;;;9.41;100.00;98380.88;5093477;28;20204;-72
2023/12/27 11:17:46;;;;;;;4.27;2.80;;;;;;;9.35;100.00;98387.00;5093441;28;20218;-72
2023/12/27 11:20:14;;;;;;;3.80;2.67;;;;;;;9.27;100.00;98382.69;5093067;28;20626;-72
2023/12/27 11:22:43;;;;;;;3.43;2.67;;;;;;;9.40;100.00;98382.72;5092816;28;20722;-72
2023/12/27 11:25:10;;;;;;;6.03;2.73;;;;;;;9.54;100.00;98370.25;5092976;28;20207;-72
2023/12/27 11:27:36;;;;;;;4.80;3.03;;;;;;;9.63;100.00;98375.16;5092816;28;20204;-72
2023/12/27 11:30:04;;;;;;;3.73;2.70;;;;;;;9.75;100.00;98372.69;5092799;28;20635;-72
2023/12/27 11:32:30;;;;;;;6.23;3.00;;;;;;;9.80;100.00;98364.94;5093258;28;20239;-72